createdAt,value
2023-05-25T00:00:31.349Z,700.46
2023-05-25T00:01:31.300Z,696.79
2023-05-25T00:02:31.378Z,693.90
2023-05-25T00:03:32.167Z,689.59
2023-05-25T00:04:31.288Z,696.79
2023-05-25T00:05:31.268Z,692.45
2023-05-25T00:06:31.245Z,693.90
2023-05-25T00:07:31.235Z,692.45
2023-05-25T00:08:31.336Z,696.07
2023-05-25T00:09:31.219Z,693.90
2023-05-25T00:10:31.209Z,693.17
2023-05-25T00:11:31.160Z,695.34
2023-05-25T00:12:31.154Z,696.79
2023-05-25T00:13:31.130Z,694.62
2023-05-25T00:14:31.227Z,695.34
2023-05-25T00:15:31.133Z,691.74
2023-05-25T00:16:31.154Z,691.74
2023-05-25T00:17:31.107Z,691.02
2023-05-25T00:18:31.082Z,686.04
2023-05-25T00:19:31.068Z,684.63
2023-05-25T00:20:31.072Z,686.75
2023-05-25T00:21:31.042Z,691.02
2023-05-25T00:22:31.019Z,686.04
2023-05-25T00:23:31.040Z,686.04
2023-05-25T00:24:30.999Z,681.14
2023-05-25T00:25:30.987Z,689.59
2023-05-25T00:26:30.981Z,688.17
2023-05-25T00:27:30.959Z,678.36
2023-05-25T00:28:30.956Z,679.75
2023-05-25T00:29:30.915Z,676.99
2023-05-25T00:30:30.907Z,674.93
2023-05-25T00:31:30.945Z,681.14
2023-05-25T00:32:30.915Z,680.44
2023-05-25T00:33:30.916Z,672.89
2023-05-25T00:34:30.865Z,677.68
2023-05-25T00:35:30.862Z,681.14
2023-05-25T00:36:30.823Z,677.68
2023-05-25T00:37:30.834Z,677.68
2023-05-25T00:38:30.816Z,674.93
2023-05-25T00:39:30.810Z,672.21
2023-05-25T00:40:30.782Z,672.21
2023-05-25T00:41:30.764Z,671.53
2023-05-25T00:42:30.783Z,670.86
2023-05-25T00:43:30.732Z,661.54
2023-05-25T00:44:30.787Z,669.51
2023-05-25T00:45:30.706Z,666.17
2023-05-25T00:46:30.763Z,664.84
2023-05-25T00:47:30.708Z,656.33
2023-05-25T00:48:30.662Z,656.98
2023-05-25T00:49:30.650Z,651.84
2023-05-25T00:50:30.640Z,655.04
2023-05-25T00:51:30.644Z,648.67
2023-05-25T00:52:30.626Z,648.04
2023-05-25T00:53:30.585Z,643.04
2023-05-25T00:54:30.572Z,640.57
2023-05-25T00:55:30.568Z,646.78
2023-05-25T00:56:30.568Z,636.29
2023-05-25T00:57:30.537Z,634.47
2023-05-25T00:58:30.529Z,637.51
2023-05-25T00:59:30.509Z,627.90
2023-05-25T01:00:30.491Z,626.72
2023-05-25T01:01:30.544Z,623.21
2023-05-25T01:02:30.513Z,622.05
2023-05-25T01:03:30.535Z,622.05
2023-05-25T01:04:30.458Z,613.46
2023-05-25T01:05:30.475Z,615.73
2023-05-25T01:06:30.431Z,611.21
2023-05-25T01:07:30.404Z,605.66
2023-05-25T01:08:30.386Z,605.11
2023-05-25T01:09:30.381Z,599.67
2023-05-25T01:10:30.397Z,598.59
2023-05-25T01:11:30.355Z,601.29
2023-05-25T01:12:30.338Z,592.74
2023-05-25T01:13:30.338Z,592.74
2023-05-25T01:14:30.321Z,588.04
2023-05-25T01:15:30.310Z,592.21
2023-05-25T01:16:30.304Z,592.74
2023-05-25T01:17:29.849Z,590.64
2023-05-25T01:18:30.260Z,584.94
2023-05-25T01:19:30.255Z,578.35
2023-05-25T01:20:30.298Z,582.90
2023-05-25T01:21:30.220Z,583.41
2023-05-25T01:22:30.205Z,577.34
2023-05-25T01:23:30.194Z,578.85
2023-05-25T01:24:30.192Z,573.87
2023-05-25T01:25:30.175Z,574.86
2023-05-25T01:26:30.150Z,572.39
2023-05-25T01:27:30.140Z,570.92
2023-05-25T01:28:30.117Z,574.86
2023-05-25T01:29:30.130Z,569.94
2023-05-25T01:30:30.090Z,565.59
2023-05-25T01:31:30.129Z,566.07
2023-05-25T01:32:30.082Z,568.48
2023-05-25T01:33:30.058Z,568.00
2023-05-25T01:34:30.059Z,560.36
2023-05-25T01:35:30.033Z,556.62
2023-05-25T01:36:30.022Z,556.16
2023-05-25T01:37:30.015Z,556.16
2023-05-25T01:38:29.980Z,550.19
2023-05-25T01:39:29.979Z,555.69
2023-05-25T01:40:29.954Z,549.29
2023-05-25T01:41:29.945Z,552.01
2023-05-25T01:42:29.964Z,544.35
2023-05-25T01:43:29.926Z,541.70
2023-05-25T01:44:29.908Z,546.59
2023-05-25T01:45:29.932Z,539.51
2023-05-25T01:46:29.906Z,540.38
2023-05-25T01:47:29.884Z,535.18
2023-05-25T01:48:29.847Z,534.32
2023-05-25T01:49:29.820Z,532.19
2023-05-25T01:50:29.865Z,530.07
2023-05-25T01:51:29.828Z,528.81
2023-05-25T01:52:29.902Z,527.98
2023-05-25T01:53:29.811Z,523.83
2023-05-25T01:54:29.753Z,523.42
2023-05-25T01:55:29.765Z,524.24
2023-05-25T01:56:29.745Z,520.56
2023-05-25T01:57:29.751Z,516.92
2023-05-25T01:58:29.709Z,515.73
2023-05-25T01:59:29.698Z,511.38
2023-05-25T02:00:29.669Z,512.16
2023-05-25T02:01:29.738Z,506.33
2023-05-25T02:02:29.670Z,506.33
2023-05-25T02:03:29.639Z,507.10
2023-05-25T02:04:29.638Z,504.03
2023-05-25T02:05:29.607Z,502.51
2023-05-25T02:06:29.625Z,502.13
2023-05-25T02:07:29.605Z,501.38
2023-05-25T02:08:29.091Z,499.88
2023-05-25T02:09:29.568Z,498.75
2023-05-25T02:10:29.566Z,501.76
2023-05-25T02:11:29.594Z,497.64
2023-05-25T02:12:29.521Z,501.38
2023-05-25T02:13:29.518Z,498.01
2023-05-25T02:14:28.212Z,496.16
2023-05-25T02:15:29.481Z,498.75
2023-05-25T02:16:29.586Z,501.76
2023-05-25T02:17:29.478Z,496.89
2023-05-25T02:18:29.443Z,499.88
2023-05-25T02:19:29.441Z,500.25
2023-05-25T02:20:27.960Z,502.89
2023-05-25T02:21:29.429Z,500.25
2023-05-25T02:22:29.389Z,500.25
2023-05-25T02:23:29.364Z,498.75
2023-05-25T02:24:29.352Z,501.38
2023-05-25T02:25:29.356Z,498.01
2023-05-25T02:26:29.342Z,498.75
2023-05-25T02:27:29.314Z,496.89
2023-05-25T02:28:29.312Z,496.16
2023-05-25T02:29:29.293Z,493.22
2023-05-25T02:30:29.344Z,494.68
2023-05-25T02:31:29.322Z,488.88
2023-05-25T02:32:29.291Z,489.60
2023-05-25T02:33:29.245Z,484.62
2023-05-25T02:34:29.233Z,482.16
2023-05-25T02:35:29.233Z,479.74
2023-05-25T02:36:29.184Z,474.95
2023-05-25T02:37:29.209Z,473.60
2023-05-25T02:38:29.174Z,469.27
2023-05-25T02:39:29.166Z,469.60
2023-05-25T02:40:29.150Z,468.94
2023-05-25T02:41:29.131Z,466.97
2023-05-25T02:42:29.122Z,466.64
2023-05-25T02:43:29.109Z,462.44
2023-05-25T02:44:29.125Z,453.01
2023-05-25T02:45:29.095Z,463.08
2023-05-25T02:46:29.116Z,455.49
2023-05-25T02:47:29.099Z,455.49
2023-05-25T02:48:29.069Z,452.09
2023-05-25T02:49:29.037Z,449.05
2023-05-25T02:50:29.031Z,452.09
2023-05-25T02:51:29.004Z,450.87
2023-05-25T02:52:29.003Z,451.78
2023-05-25T02:53:29.003Z,447.54
2023-05-25T02:54:29.014Z,447.84
2023-05-25T02:55:28.970Z,446.64
2023-05-25T02:56:28.953Z,450.56
2023-05-25T02:57:28.955Z,447.84
2023-05-25T02:58:28.965Z,448.74
2023-05-25T02:59:28.968Z,448.44
2023-05-25T03:00:28.910Z,448.44
2023-05-25T03:01:28.960Z,447.84
2023-05-25T03:02:28.935Z,447.84
2023-05-25T03:03:28.886Z,448.74
2023-05-25T03:04:28.813Z,447.84
2023-05-25T03:05:28.805Z,448.14
2023-05-25T03:06:28.797Z,447.84
2023-05-25T03:07:28.800Z,449.95
2023-05-25T03:08:28.801Z,448.44
2023-05-25T03:09:28.759Z,447.84
2023-05-25T03:10:28.778Z,448.14
2023-05-25T03:11:28.722Z,445.74
2023-05-25T03:12:28.710Z,446.94
2023-05-25T03:13:28.705Z,450.87
2023-05-25T03:14:28.684Z,446.94
2023-05-25T03:15:28.660Z,445.15
2023-05-25T03:16:28.722Z,444.55
2023-05-25T03:17:28.742Z,445.15
2023-05-25T03:18:28.657Z,446.04
2023-05-25T03:19:28.129Z,444.55
2023-05-25T03:20:28.610Z,442.78
2023-05-25T03:21:28.609Z,441.03
2023-05-25T03:22:28.580Z,442.78
2023-05-25T03:23:28.548Z,443.37
2023-05-25T03:24:28.548Z,436.98
2023-05-25T03:25:28.541Z,438.99
2023-05-25T03:26:28.514Z,435.55
2023-05-25T03:27:28.519Z,436.70
2023-05-25T03:28:28.479Z,436.41
2023-05-25T03:29:28.484Z,433.29
2023-05-25T03:30:28.483Z,433.57
2023-05-25T03:31:28.470Z,432.45
2023-05-25T03:32:28.505Z,432.17
2023-05-25T03:33:28.421Z,428.83
2023-05-25T03:34:28.415Z,429.11
2023-05-25T03:35:28.424Z,425.28
2023-05-25T03:36:28.393Z,424.19
2023-05-25T03:37:28.392Z,425.82
2023-05-25T03:38:28.357Z,420.98
2023-05-25T03:39:28.348Z,423.12
2023-05-25T03:40:28.335Z,423.39
2023-05-25T03:41:28.330Z,423.39
2023-05-25T03:42:28.328Z,417.55
2023-05-25T03:43:28.292Z,417.82
2023-05-25T03:44:28.263Z,415.73
2023-05-25T03:45:28.306Z,412.13
2023-05-25T03:46:28.412Z,413.92
2023-05-25T03:47:28.264Z,413.92
2023-05-25T03:48:28.257Z,406.85
2023-05-25T03:49:28.235Z,412.64
2023-05-25T03:50:28.222Z,411.37
2023-05-25T03:51:28.225Z,412.13
2023-05-25T03:52:28.165Z,406.85
2023-05-25T03:53:28.172Z,408.85
2023-05-25T03:54:28.166Z,402.68
2023-05-25T03:55:28.152Z,404.88
2023-05-25T03:56:28.147Z,403.90
2023-05-25T03:57:28.101Z,406.11
2023-05-25T03:58:28.118Z,404.14
2023-05-25T03:59:28.132Z,403.16
2023-05-25T04:00:28.073Z,403.16
2023-05-25T04:01:28.051Z,402.43
2023-05-25T04:02:28.142Z,403.16
2023-05-25T04:03:28.204Z,399.78
2023-05-25T04:04:28.055Z,401.46
2023-05-25T04:05:27.992Z,401.22
2023-05-25T04:06:27.977Z,403.41
2023-05-25T04:07:27.985Z,401.46
2023-05-25T04:08:27.949Z,398.58
2023-05-25T04:09:27.941Z,399.06
2023-05-25T04:10:27.951Z,400.02
2023-05-25T04:11:27.904Z,398.35
2023-05-25T04:12:27.902Z,397.16
2023-05-25T04:13:27.886Z,396.69
2023-05-25T04:14:27.888Z,395.98
2023-05-25T04:15:27.885Z,399.30
2023-05-25T04:16:27.940Z,395.04
2023-05-25T04:17:27.863Z,395.04
2023-05-25T04:18:27.829Z,399.78
2023-05-25T04:19:27.818Z,399.54
2023-05-25T04:20:27.828Z,399.30
2023-05-25T04:21:27.787Z,399.54
2023-05-25T04:22:27.782Z,398.82
2023-05-25T04:23:27.765Z,396.22
2023-05-25T04:24:27.735Z,400.26
2023-05-25T04:25:29.524Z,397.40
2023-05-25T04:26:27.704Z,396.69
2023-05-25T04:27:27.687Z,401.22
2023-05-25T04:28:27.683Z,399.78
2023-05-25T04:29:27.663Z,399.06
2023-05-25T04:30:27.661Z,398.58
2023-05-25T04:31:27.727Z,401.22
2023-05-25T04:32:27.642Z,397.16
2023-05-25T04:33:27.630Z,399.78
2023-05-25T04:34:27.604Z,398.82
2023-05-25T04:35:27.582Z,401.71
2023-05-25T04:36:27.575Z,400.98
2023-05-25T04:37:27.687Z,398.58
2023-05-25T04:38:27.562Z,401.22
2023-05-25T04:39:27.533Z,399.78
2023-05-25T04:40:27.529Z,399.78
2023-05-25T04:41:27.496Z,400.02
2023-05-25T04:42:27.510Z,399.78
2023-05-25T04:43:27.457Z,399.06
2023-05-25T04:44:27.454Z,400.50
2023-05-25T04:45:27.452Z,400.26
2023-05-25T04:46:27.493Z,402.19
2023-05-25T04:47:27.461Z,403.41
2023-05-25T04:48:27.408Z,406.11
2023-05-25T04:49:27.397Z,406.85
2023-05-25T04:50:27.393Z,408.35
2023-05-25T04:51:27.374Z,410.61
2023-05-25T04:52:27.371Z,411.62
2023-05-25T04:53:25.538Z,414.95
2023-05-25T04:54:27.325Z,419.39
2023-05-25T04:55:27.355Z,419.92
2023-05-25T04:56:27.312Z,420.45
2023-05-25T04:57:27.295Z,421.51
2023-05-25T04:58:27.279Z,425.28
2023-05-25T04:59:27.253Z,433.57
2023-05-25T05:00:27.258Z,429.94
2023-05-25T05:01:27.292Z,429.94
2023-05-25T05:02:27.263Z,431.61
2023-05-25T05:03:27.274Z,433.57
2023-05-25T05:04:27.197Z,433.57
2023-05-25T05:05:27.183Z,434.42
2023-05-25T05:06:27.183Z,438.42
2023-05-25T05:07:27.137Z,439.57
2023-05-25T05:08:27.137Z,438.42
2023-05-25T05:09:27.116Z,443.08
2023-05-25T05:10:27.108Z,441.61
2023-05-25T05:11:27.103Z,440.74
2023-05-25T05:12:27.088Z,443.67
2023-05-25T05:13:27.066Z,447.24
2023-05-25T05:14:27.058Z,446.34
2023-05-25T05:15:27.045Z,448.44
2023-05-25T05:16:27.084Z,448.14
2023-05-25T05:17:27.047Z,449.95
2023-05-25T05:18:27.007Z,446.64
2023-05-25T05:19:27.007Z,449.05
2023-05-25T05:20:27.010Z,450.87
2023-05-25T05:21:26.963Z,454.56
2023-05-25T05:22:26.999Z,453.94
2023-05-25T05:23:26.938Z,454.87
2023-05-25T05:24:26.915Z,454.25
2023-05-25T05:25:26.912Z,457.36
2023-05-25T05:26:26.888Z,455.18
2023-05-25T05:27:26.878Z,459.25
2023-05-25T05:28:26.874Z,457.36
2023-05-25T05:29:26.953Z,459.25
2023-05-25T05:30:26.849Z,458.30
2023-05-25T05:31:26.824Z,459.89
2023-05-25T05:32:26.818Z,465.34
2023-05-25T05:33:26.893Z,469.93
2023-05-25T05:34:26.801Z,475.97
2023-05-25T05:35:26.784Z,479.74
2023-05-25T05:36:26.759Z,478.02
2023-05-25T05:37:26.748Z,475.97
2023-05-25T05:38:26.739Z,474.61
2023-05-25T05:39:26.750Z,475.63
2023-05-25T05:40:26.709Z,477.33
2023-05-25T05:41:26.191Z,475.29
2023-05-25T05:42:26.671Z,472.60
2023-05-25T05:43:26.700Z,472.93
2023-05-25T05:44:29.077Z,471.93
2023-05-25T05:45:26.628Z,472.93
2023-05-25T05:46:26.627Z,476.65
2023-05-25T05:47:26.647Z,470.93
2023-05-25T05:48:26.591Z,470.26
2023-05-25T05:49:26.562Z,467.95
2023-05-25T05:50:26.544Z,465.02
2023-05-25T05:51:26.542Z,468.28
2023-05-25T05:52:26.526Z,469.27
2023-05-25T05:53:26.523Z,468.61
2023-05-25T05:54:26.514Z,464.05
2023-05-25T05:55:26.518Z,461.80
2023-05-25T05:56:26.496Z,460.84
2023-05-25T05:57:26.495Z,463.72
2023-05-25T05:58:26.449Z,464.69
2023-05-25T05:59:26.438Z,464.37
2023-05-25T06:00:26.423Z,465.99
2023-05-25T06:01:26.409Z,470.60
2023-05-25T06:02:26.453Z,470.26
2023-05-25T06:03:26.419Z,470.93
2023-05-25T06:04:26.388Z,472.26
2023-05-25T06:05:26.387Z,467.95
2023-05-25T06:06:26.353Z,469.93
2023-05-25T06:07:26.328Z,468.61
2023-05-25T06:08:26.336Z,472.26
2023-05-25T06:09:26.292Z,471.59
2023-05-25T06:10:26.288Z,474.95
2023-05-25T06:11:26.271Z,474.95
2023-05-25T06:12:26.282Z,478.02
2023-05-25T06:13:26.254Z,479.74
2023-05-25T06:14:28.295Z,479.74
2023-05-25T06:15:26.229Z,482.51
2023-05-25T06:16:26.238Z,481.12
2023-05-25T06:17:26.256Z,489.60
2023-05-25T06:18:26.205Z,496.16
2023-05-25T06:19:26.151Z,501.76
2023-05-25T06:20:26.212Z,514.14
2023-05-25T06:21:26.142Z,518.94
2023-05-25T06:22:26.130Z,520.56
2023-05-25T06:23:26.129Z,530.92
2023-05-25T06:24:26.106Z,536.90
2023-05-25T06:25:26.091Z,547.48
2023-05-25T06:26:26.100Z,553.39
2023-05-25T06:27:26.064Z,557.09
2023-05-25T06:28:26.038Z,558.96
2023-05-25T06:29:26.029Z,571.41
2023-05-25T06:30:26.020Z,575.85
2023-05-25T06:31:26.036Z,578.85
2023-05-25T06:32:26.011Z,573.87
2023-05-25T06:33:25.976Z,581.88
2023-05-25T06:34:25.955Z,585.46
2023-05-25T06:35:25.955Z,592.74
2023-05-25T06:36:27.391Z,599.13
2023-05-25T06:37:25.926Z,604.56
2023-05-25T06:38:25.909Z,615.73
2023-05-25T06:39:25.887Z,615.16
2023-05-25T06:40:25.883Z,622.05
2023-05-25T06:41:25.876Z,628.49
2023-05-25T06:42:25.864Z,632.07
2023-05-25T06:43:25.837Z,639.34
2023-05-25T06:44:25.832Z,643.66
2023-05-25T06:45:25.826Z,646.78
2023-05-25T06:46:25.830Z,656.33
2023-05-25T06:47:25.795Z,658.28
2023-05-25T06:48:25.764Z,662.86
2023-05-25T06:49:25.769Z,662.20
2023-05-25T06:50:25.784Z,667.50
2023-05-25T06:51:25.710Z,674.25
2023-05-25T06:52:25.711Z,683.23
2023-05-25T06:53:25.699Z,688.17
2023-05-25T06:54:25.680Z,689.59
2023-05-25T06:55:25.675Z,695.34
2023-05-25T06:56:25.655Z,696.07
2023-05-25T06:57:25.637Z,698.99
2023-05-25T06:58:25.622Z,703.41
2023-05-25T06:59:25.611Z,707.14
2023-05-25T07:00:25.614Z,706.39
2023-05-25T07:01:25.662Z,713.95
2023-05-25T07:02:25.581Z,715.49
2023-05-25T07:03:25.564Z,727.19
2023-05-25T07:04:25.576Z,714.72
2023-05-25T07:05:25.571Z,734.40
2023-05-25T07:06:25.533Z,739.28
2023-05-25T07:07:25.487Z,745.07
2023-05-25T07:08:25.494Z,751.69
2023-05-25T07:09:25.058Z,748.32
2023-05-25T07:10:25.528Z,755.52
2023-05-25T07:11:25.450Z,764.60
2023-05-25T07:12:25.441Z,764.60
2023-05-25T07:13:25.434Z,774.81
2023-05-25T07:14:25.439Z,775.71
2023-05-25T07:15:25.409Z,779.33
2023-05-25T07:16:25.449Z,788.08
2023-05-25T07:17:25.502Z,795.12
2023-05-25T07:18:25.366Z,797.97
2023-05-25T07:19:25.351Z,805.19
2023-05-25T07:20:25.460Z,814.02
2023-05-25T07:21:25.327Z,823.57
2023-05-25T07:22:25.308Z,834.38
2023-05-25T07:23:25.293Z,832.81
2023-05-25T07:24:25.287Z,843.87
2023-05-25T07:25:25.286Z,854.67
2023-05-25T07:26:25.248Z,860.73
2023-05-25T07:27:25.263Z,874.84
2023-05-25T07:28:25.248Z,887.63
2023-05-25T07:29:25.208Z,892.38
2023-05-25T07:30:25.230Z,898.99
2023-05-25T07:31:25.239Z,914.38
2023-05-25T07:32:25.215Z,930.96
2023-05-25T07:33:25.171Z,942.13
2023-05-25T07:34:26.528Z,947.48
2023-05-25T07:35:24.625Z,969.50
2023-05-25T07:36:25.163Z,983.06
2023-05-25T07:37:25.116Z,997.01
2023-05-25T07:38:25.096Z,1015.98
2023-05-25T07:39:25.072Z,1012.90
2023-05-25T07:40:25.067Z,1037.30
2023-05-25T07:41:25.085Z,1045.42
2023-05-25T07:42:25.049Z,1054.50
2023-05-25T07:43:25.036Z,1062.05
2023-05-25T07:44:25.012Z,1073.15
2023-05-25T07:45:24.980Z,1084.48
2023-05-25T07:46:25.165Z,1102.40
2023-05-25T07:47:25.019Z,1124.68
2023-05-25T07:48:24.958Z,1133.28
2023-05-25T07:49:24.948Z,1130.40
2023-05-25T07:50:24.939Z,1153.85
2023-05-25T07:51:24.929Z,1177.25
2023-05-25T07:52:24.903Z,1185.61
2023-05-25T07:53:24.877Z,1211.43
2023-05-25T07:54:24.879Z,1223.65
2023-05-25T07:55:24.859Z,1236.11
2023-05-25T07:56:24.858Z,1244.18
2023-05-25T07:57:24.835Z,1254.70
2023-05-25T07:58:24.824Z,1252.34
2023-05-25T07:59:24.801Z,1270.22
2023-05-25T08:00:24.810Z,1281.19
2023-05-25T08:01:26.900Z,1284.89
2023-05-25T08:02:24.851Z,1286.13
2023-05-25T08:03:39.873Z,1296.12
2023-05-25T08:04:25.787Z,1303.71
2023-05-25T08:05:24.761Z,1296.12
2023-05-25T08:06:24.726Z,1311.40
2023-05-25T08:07:24.722Z,1317.87
2023-05-25T08:08:24.740Z,1327.04
2023-05-25T08:09:24.690Z,1339.02
2023-05-25T08:10:24.669Z,1352.58
2023-05-25T08:11:24.689Z,1345.77
2023-05-25T08:13:25.616Z,1369.23
2023-05-25T08:14:24.617Z,1402.31
2023-05-25T08:15:24.600Z,1414.19
2023-05-25T08:16:24.657Z,1418.70
2023-05-25T08:17:24.663Z,1446.37
2023-05-25T08:18:24.555Z,1447.94
2023-05-25T08:19:24.543Z,1459.02
2023-05-25T08:20:24.589Z,1468.65
2023-05-25T08:21:24.525Z,1462.21
2023-05-25T08:22:24.515Z,1481.69
2023-05-25T08:23:24.487Z,1494.96
2023-05-25T08:24:24.494Z,1513.60
2023-05-25T08:25:29.415Z,1513.60
2023-05-25T08:26:38.323Z,1500.84
2023-05-25T08:27:25.435Z,1500.84
2023-05-25T08:28:24.409Z,1509.33
2023-05-25T08:29:24.424Z,1526.59
2023-05-25T08:30:24.410Z,1517.05
2023-05-25T08:31:24.096Z,1504.22
2023-05-25T08:32:24.424Z,1514.46
2023-05-25T08:33:25.986Z,1530.96
2023-05-25T08:34:24.342Z,1508.47
2023-05-25T08:35:24.327Z,1513.60
2023-05-25T08:36:24.322Z,1533.60
2023-05-25T08:37:24.301Z,1554.13
2023-05-25T08:38:24.304Z,1561.40
2023-05-25T08:39:24.279Z,1565.06
2023-05-25T08:40:24.270Z,1562.32
2023-05-25T08:41:24.255Z,1562.32
2023-05-25T08:42:24.241Z,1577.08
2023-05-25T08:43:24.233Z,1573.36
2023-05-25T08:44:24.209Z,1560.49
2023-05-25T08:45:35.316Z,1555.94
2023-05-25T08:46:25.213Z,1571.51
2023-05-25T08:47:24.183Z,1583.63
2023-05-25T08:48:39.472Z,1608.43
2023-05-25T08:49:25.232Z,1617.20
2023-05-25T08:50:24.129Z,1605.53
2023-05-25T08:51:24.143Z,1601.68
2023-05-25T08:52:24.145Z,1605.53
2023-05-25T08:53:24.105Z,1622.11
2023-05-25T08:54:24.095Z,1624.09
2023-05-25T08:55:24.074Z,1634.03
2023-05-25T08:56:24.053Z,1644.09
2023-05-25T08:57:24.068Z,1639.04
2023-05-25T08:58:24.051Z,1632.03
2023-05-25T08:59:24.024Z,1651.21
2023-05-25T09:00:23.510Z,1651.21
2023-05-25T09:01:24.048Z,1647.13
2023-05-25T09:02:24.026Z,1649.17
2023-05-25T09:03:24.025Z,1658.39
2023-05-25T09:04:23.954Z,1689.87
2023-05-25T09:05:23.951Z,1693.09
2023-05-25T09:06:23.933Z,1715.94
2023-05-25T09:07:23.927Z,1710.44
2023-05-25T09:08:23.901Z,1706.07
2023-05-25T09:09:23.902Z,1720.36
2023-05-25T09:10:23.879Z,1724.81
2023-05-25T09:11:37.316Z,1731.52
2023-05-25T09:12:24.861Z,1729.28
2023-05-25T09:13:23.864Z,1745.10
2023-05-25T09:14:23.828Z,1750.82
2023-05-25T09:15:23.815Z,1747.38
2023-05-25T09:16:23.840Z,1764.71
2023-05-25T09:17:23.789Z,1749.67
2023-05-25T09:18:23.811Z,1751.97
2023-05-25T09:19:23.766Z,1748.53
2023-05-25T09:20:23.749Z,1737.15
2023-05-25T09:21:23.737Z,1727.04
2023-05-25T09:22:23.740Z,1725.92
2023-05-25T09:23:23.734Z,1706.07
2023-05-25T09:24:23.689Z,1710.44
2023-05-25T09:25:23.714Z,1728.16
2023-05-25T09:26:23.681Z,1728.16
2023-05-25T09:27:23.677Z,1697.39
2023-05-25T09:28:27.304Z,1675.03
2023-05-25T09:29:23.633Z,1690.94
2023-05-25T09:30:23.632Z,1701.72
2023-05-25T09:31:23.764Z,1698.47
2023-05-25T09:32:23.648Z,1727.04
2023-05-25T09:33:23.587Z,1740.55
2023-05-25T09:34:23.617Z,1743.96
2023-05-25T09:35:23.585Z,1727.04
2023-05-25T09:36:23.682Z,1718.15
2023-05-25T09:37:23.739Z,1710.44
2023-05-25T09:38:23.728Z,1714.84
2023-05-25T09:39:23.715Z,1702.81
2023-05-25T09:40:23.497Z,1709.35
2023-05-25T09:41:23.482Z,1697.39
2023-05-25T09:42:23.479Z,1699.55
2023-05-25T09:43:39.707Z,1687.74
2023-05-25T09:44:24.461Z,1687.74
2023-05-25T09:45:23.450Z,1693.09
2023-05-25T09:46:23.505Z,1685.61
2023-05-25T09:47:23.441Z,1684.54
2023-05-25T09:48:23.402Z,1678.19
2023-05-25T09:49:23.403Z,1672.93
2023-05-25T09:50:23.405Z,1678.19
2023-05-25T09:51:23.374Z,1676.08
2023-05-25T09:52:23.347Z,1655.30
2023-05-25T09:53:23.347Z,1660.45
2023-05-25T09:54:23.328Z,1668.75
2023-05-25T09:55:23.316Z,1669.79
2023-05-25T09:56:23.295Z,1677.14
2023-05-25T09:57:23.286Z,1676.08
2023-05-25T09:58:23.265Z,1686.67
2023-05-25T09:59:23.569Z,1694.16
2023-05-25T10:00:23.233Z,1673.98
2023-05-25T10:01:23.269Z,1684.54
2023-05-25T10:02:23.224Z,1688.81
2023-05-25T10:03:23.293Z,1678.19
2023-05-25T10:04:23.261Z,1687.74
2023-05-25T10:05:23.181Z,1699.55
2023-05-25T10:06:23.187Z,1704.98
2023-05-25T10:07:23.254Z,1703.89
2023-05-25T10:08:23.158Z,1706.07
2023-05-25T10:09:23.198Z,1741.68
2023-05-25T10:10:23.127Z,1738.28
2023-05-25T10:11:23.122Z,1769.38
2023-05-25T10:12:23.116Z,1747.38
2023-05-25T10:13:23.108Z,1764.71
2023-05-25T10:14:23.085Z,1780.00
2023-05-25T10:15:23.047Z,1754.27
2023-05-25T10:16:23.089Z,1765.87
2023-05-25T10:17:23.095Z,1760.05
2023-05-25T10:18:23.030Z,1790.74
2023-05-25T10:19:23.037Z,1785.95
2023-05-25T10:20:23.053Z,1769.38
2023-05-25T10:21:22.959Z,1783.57
2023-05-25T10:22:22.969Z,1780.00
2023-05-25T10:23:22.976Z,1788.35
2023-05-25T10:24:22.961Z,1789.54
2023-05-25T10:25:22.931Z,1785.95
2023-05-25T10:26:22.920Z,1801.62
2023-05-25T10:27:27.620Z,1789.54
2023-05-25T10:28:23.884Z,1780.00
2023-05-25T10:29:22.869Z,1804.05
2023-05-25T10:30:22.873Z,1823.77
2023-05-25T10:31:22.913Z,1841.38
2023-05-25T10:32:22.902Z,1837.58
2023-05-25T10:33:22.832Z,1845.20
2023-05-25T10:34:22.820Z,1838.84
2023-05-25T10:35:22.811Z,1846.47
2023-05-25T10:36:22.788Z,1849.03
2023-05-25T10:37:22.807Z,1868.44
2023-05-25T10:38:22.763Z,1828.77
2023-05-25T10:39:22.740Z,1850.31
2023-05-25T10:40:22.740Z,1836.31
2023-05-25T10:41:22.722Z,1854.17
2023-05-25T10:42:22.718Z,1881.61
2023-05-25T10:43:22.707Z,1841.38
2023-05-25T10:44:22.693Z,1871.06
2023-05-25T10:45:22.679Z,1878.96
2023-05-25T10:46:22.804Z,1880.28
2023-05-25T10:47:22.760Z,1865.83
2023-05-25T10:48:22.666Z,1850.31
2023-05-25T10:49:22.646Z,1875.00
2023-05-25T10:50:22.608Z,1885.59
2023-05-25T10:51:22.600Z,1869.75
2023-05-25T10:52:22.611Z,1908.51
2023-05-25T10:53:22.569Z,1900.36
2023-05-25T10:54:22.554Z,1897.66
2023-05-25T10:55:22.552Z,1890.94
2023-05-25T10:56:22.531Z,1886.93
2023-05-25T10:57:22.513Z,1881.61
2023-05-25T10:58:22.490Z,1905.78
2023-05-25T10:59:22.484Z,1892.28
2023-05-25T11:00:22.517Z,1885.59
2023-05-25T11:01:22.533Z,1897.66
2023-05-25T11:02:22.492Z,1927.80
2023-05-25T11:03:22.456Z,1934.78
2023-05-25T11:04:22.461Z,1933.38
2023-05-25T11:05:22.425Z,1937.59
2023-05-25T11:06:22.389Z,1939.00
2023-05-25T11:07:22.392Z,1933.38
2023-05-25T11:08:22.381Z,1953.18
2023-05-25T11:09:22.368Z,1973.39
2023-05-25T11:10:22.402Z,1976.31
2023-05-25T11:11:22.378Z,1994.03
2023-05-25T11:12:22.320Z,2016.62
2023-05-25T11:13:22.318Z,2049.12
2023-05-25T11:14:22.318Z,2019.67
2023-05-25T11:15:22.313Z,2019.67
2023-05-25T11:16:22.407Z,2025.80
2023-05-25T11:17:22.312Z,2045.98
2023-05-25T11:18:22.238Z,2055.43
2023-05-25T11:19:22.262Z,2090.84
2023-05-25T11:20:22.254Z,2104.02
2023-05-25T11:21:22.233Z,2132.59
2023-05-25T11:22:22.203Z,2139.42
2023-05-25T11:23:22.179Z,2161.94
2023-05-25T11:24:22.190Z,2174.27
2023-05-25T11:25:22.161Z,2192.12
2023-05-25T11:26:22.152Z,2206.61
2023-05-25T11:27:22.132Z,2210.26
2023-05-25T11:28:22.116Z,2226.86
2023-05-25T11:29:22.116Z,2255.07
2023-05-25T11:30:22.083Z,2266.55
2023-05-25T11:31:22.116Z,2255.07
2023-05-25T11:32:22.219Z,2258.88
2023-05-25T11:33:22.063Z,2228.72
2023-05-25T11:34:22.090Z,2221.30
2023-05-25T11:35:22.046Z,2215.77
2023-05-25T11:36:22.046Z,2202.97
2023-05-25T11:37:22.030Z,2190.32
2023-05-25T11:38:21.997Z,2183.16
2023-05-25T11:39:23.289Z,2204.79
2023-05-25T11:40:21.967Z,2181.37
2023-05-25T11:41:21.966Z,2188.52
2023-05-25T11:42:21.935Z,2167.21
2023-05-25T11:43:21.959Z,2199.34
2023-05-25T11:44:21.914Z,2217.61
2023-05-25T11:45:21.914Z,2217.61
2023-05-25T11:46:21.932Z,2225.00
2023-05-25T11:47:21.898Z,2251.26
2023-05-25T11:48:21.470Z,2239.93
2023-05-25T11:49:21.925Z,2260.80
2023-05-25T11:50:21.865Z,2270.41
2023-05-25T11:51:21.851Z,2272.34
2023-05-25T11:52:21.845Z,2280.10
2023-05-25T11:53:21.824Z,2293.81
2023-05-25T11:54:21.801Z,2309.69
2023-05-25T11:55:21.809Z,2317.71
2023-05-25T11:56:34.217Z,2346.22
2023-05-25T11:57:22.785Z,2369.12
2023-05-25T11:58:20.059Z,2354.50
2023-05-25T11:59:21.744Z,2362.83
2023-05-25T12:00:21.712Z,2354.50
2023-05-25T12:01:21.713Z,2373.33
2023-05-25T12:02:21.710Z,2386.06
2023-05-25T12:03:19.923Z,2354.50
2023-05-25T12:04:24.002Z,2398.92
2023-05-25T12:05:21.713Z,2386.06
2023-05-25T12:06:21.659Z,2388.19
2023-05-25T12:07:21.635Z,2401.08
2023-05-25T12:08:21.619Z,2360.74
2023-05-25T12:09:21.598Z,2364.93
2023-05-25T12:10:21.581Z,2356.57
2023-05-25T12:11:21.588Z,2386.06
2023-05-25T12:12:21.562Z,2388.19
2023-05-25T12:13:21.113Z,2409.75
2023-05-25T12:14:21.022Z,2427.27
2023-05-25T12:15:21.819Z,2414.10
2023-05-25T12:16:21.589Z,2456.30
2023-05-25T12:17:21.578Z,2460.83
2023-05-25T12:18:21.491Z,2460.83
2023-05-25T12:19:21.475Z,2445.05
2023-05-25T12:20:21.610Z,2431.69